Ernest Shackleton — ZDLS1 — position and weather

sailwx.info

Track history (hours):
 
Tides and Currents Weather Stations Pressure Air Temp Water Temp Dewpoint Dewpoint Depression Visibility Wind Speed Wind Dir Waves Ship Positions

Oceanographic research ship Ernest Shackleton (UK/Norway)

Detailed information on ship capabilities available from University of Delaware's Ocean Information Center and ARCUS's ALIAS (Arctic Logistics Information and Support) project.

Last reported at 2015-Mar-31 07:00 UTC. Time now 2015-Mar-31 12:41 UTC.
Position S 67°36' W 068°06'.

Length 80 m; beam 17 m; draft 7.4 m.

Type: Other ship. MMSI: 740357000.

AWS

Barometer 972.9 mb
Air temperature -0.6 ° C
Dewpoint -2.1 ° C

Date/timePositionNaut miles runAvg speedWind from/ knotsBaromVisibWave heightAir tempDewpointWater temp
2015-Mar-31 07:00S 67°36' W 068°06'0 0.0 972.9 -0.6-2.1
2015-Mar-31 05:00S 67°36' W 068°06'0 0.0 972.2 -0.3-3.3
2015-Mar-31 04:00S 67°36' W 068°06'0 0.0 972.1 0.1-3.6
2015-Mar-31 03:00S 67°36' W 068°06'0 0.0 971.9 1.1-4.2
2015-Mar-31 01:00S 67°36' W 068°06'0 0.0 971.4 -0.3-1.5
2015-Mar-30 23:00S 67°36' W 068°06'0 0.0 971.8 -1.0 0.2
2015-Mar-30 22:00S 67°36' W 068°06'0 0.0 971.9 -0.8-0.2
2015-Mar-30 20:00S 67°36' W 068°06'0 0.0 972.3 -0.4-1.6
2015-Mar-30 17:00S 67°36' W 068°06'0 0.0 973.5 -0.5-1.6
2015-Mar-30 14:00S 67°36' W 068°06'0 0.0 974.6 -0.6-1.9
2015-Mar-30 13:00S 67°36' W 068°06'0 0.0 975.2 -0.5-2.4
2015-Mar-30 10:00S 67°36' W 068°06'0 0.0 976.3 -0.9-2.4
2015-Mar-30 09:00S 67°36' W 068°06'0 0.0 976.9 -1.2-2.3
2015-Mar-30 08:00S 67°36' W 068°06'0 0.0 977.1 -1.6-1.1
2015-Mar-30 07:00S 67°36' W 068°06'0 0.0 977.7 -1.6-1.3
2015-Mar-30 06:00S 67°36' W 068°06'0 0.0 978.4 -1.9-0.5
2015-Mar-30 05:00S 67°36' W 068°06'0 0.0 979.2 -1.8-0.6
2015-Mar-30 04:00S 67°36' W 068°06'0 0.0 979.9 -1.8-0.6
2015-Mar-30 02:00S 67°36' W 068°06'0 0.0 981.1 -1.8-0.9
2015-Mar-30 01:00S 67°36' W 068°06'0 0.0 981.7 -1.5-1.7
2015-Mar-30 00:00S 67°36' W 068°06'0 0.0 982.6 -1.3-2.3
2015-Mar-29 23:00S 67°36' W 068°06'0 0.0 983.8 -1.5-1.6
2015-Mar-29 22:00S 67°36' W 068°06'0 0.0 984.7 -1.2-2.2
2015-Mar-29 20:00S 67°36' W 068°06'0 0.0 986.2 -1.3-2.5
2015-Mar-29 19:00S 67°36' W 068°06'0 0.0 986.9 -0.6-4.0
2015-Mar-29 17:00S 67°36' W 068°06'0 0.0 987.9 -0.5-4.5
2015-Mar-29 14:00S 67°36' W 068°06'0 0.0 989.6 -1.2-2.8
2015-Mar-29 13:00S 67°36' W 068°06'0 0.0 989.8 -1.4-2.5
2015-Mar-29 11:00S 67°36' W 068°06'0 0.0 990.6 -1.8-1.1
2015-Mar-29 10:00S 67°36' W 068°06'0 0.0 991.6 -1.8-0.8
2015-Mar-29 07:00S 67°36' W 068°06'   993.8 -2.3 0.6
Track history (hours):
 
Tides and Currents Weather Stations Pressure Air Temp Water Temp Dewpoint Dewpoint Depression Visibility Wind Speed Wind Dir Waves Ship Positions

Oceanographic research ship Ernest Shackleton (UK/Norway)

Detailed information on ship capabilities available from University of Delaware's Ocean Information Center and ARCUS's ALIAS (Arctic Logistics Information and Support) project.

Last reported at 2015-Mar-31 07:00 UTC. Time now 2015-Mar-31 12:41 UTC.
Position S 67°36' W 068°06'.

Length 80 m; beam 17 m; draft 7.4 m.

Type: Other ship. MMSI: 740357000.

AWS

Barometer 972.9 mb
Air temperature -0.6 ° C
Dewpoint -2.1 ° C

Date/timePositionNaut miles runAvg speedWind from/ knotsBaromVisibWave heightAir tempDewpointWater temp
2015-Mar-31 07:00S 67°36' W 068°06'0 0.0 972.9 -0.6-2.1
2015-Mar-31 05:00S 67°36' W 068°06'0 0.0 972.2 -0.3-3.3
2015-Mar-31 04:00S 67°36' W 068°06'0 0.0 972.1 0.1-3.6
2015-Mar-31 03:00S 67°36' W 068°06'0 0.0 971.9 1.1-4.2
2015-Mar-31 01:00S 67°36' W 068°06'0 0.0 971.4 -0.3-1.5
2015-Mar-30 23:00S 67°36' W 068°06'0 0.0 971.8 -1.0 0.2
2015-Mar-30 22:00S 67°36' W 068°06'0 0.0 971.9 -0.8-0.2
2015-Mar-30 20:00S 67°36' W 068°06'0 0.0 972.3 -0.4-1.6
2015-Mar-30 17:00S 67°36' W 068°06'0 0.0 973.5 -0.5-1.6
2015-Mar-30 14:00S 67°36' W 068°06'0 0.0 974.6 -0.6-1.9
2015-Mar-30 13:00S 67°36' W 068°06'0 0.0 975.2 -0.5-2.4
2015-Mar-30 10:00S 67°36' W 068°06'0 0.0 976.3 -0.9-2.4
2015-Mar-30 09:00S 67°36' W 068°06'0 0.0 976.9 -1.2-2.3
2015-Mar-30 08:00S 67°36' W 068°06'0 0.0 977.1 -1.6-1.1
2015-Mar-30 07:00S 67°36' W 068°06'0 0.0 977.7 -1.6-1.3
2015-Mar-30 06:00S 67°36' W 068°06'0 0.0 978.4 -1.9-0.5
2015-Mar-30 05:00S 67°36' W 068°06'0 0.0 979.2 -1.8-0.6
2015-Mar-30 04:00S 67°36' W 068°06'0 0.0 979.9 -1.8-0.6
2015-Mar-30 02:00S 67°36' W 068°06'0 0.0 981.1 -1.8-0.9
2015-Mar-30 01:00S 67°36' W 068°06'0 0.0 981.7 -1.5-1.7
2015-Mar-30 00:00S 67°36' W 068°06'0 0.0 982.6 -1.3-2.3
2015-Mar-29 23:00S 67°36' W 068°06'0 0.0 983.8 -1.5-1.6
2015-Mar-29 22:00S 67°36' W 068°06'0 0.0 984.7 -1.2-2.2
2015-Mar-29 20:00S 67°36' W 068°06'0 0.0 986.2 -1.3-2.5
2015-Mar-29 19:00S 67°36' W 068°06'0 0.0 986.9 -0.6-4.0
2015-Mar-29 17:00S 67°36' W 068°06'0 0.0 987.9 -0.5-4.5
2015-Mar-29 14:00S 67°36' W 068°06'0 0.0 989.6 -1.2-2.8
2015-Mar-29 13:00S 67°36' W 068°06'0 0.0 989.8 -1.4-2.5
2015-Mar-29 11:00S 67°36' W 068°06'0 0.0 990.6 -1.8-1.1
2015-Mar-29 10:00S 67°36' W 068°06'0 0.0 991.6 -1.8-0.8
2015-Mar-29 07:00S 67°36' W 068°06'   993.8 -2.3 0.6

Dump ship's entire track history